createdAt,value
2019-05-02T00:01:51.695Z,92.10
2019-05-02T00:04:21.022Z,92.10
2019-05-02T00:07:03.439Z,93.10
2019-05-02T00:09:33.478Z,93.00
2019-05-02T00:11:59.648Z,94.00
2019-05-02T00:14:27.727Z,94.60
2019-05-02T00:16:56.613Z,94.40
2019-05-02T00:19:24.671Z,94.30
2019-05-02T00:21:52.752Z,94.60
2019-05-02T00:24:20.814Z,94.20
2019-05-02T00:26:48.850Z,94.10
2019-05-02T00:29:18.974Z,94.30
2019-05-02T00:31:46.817Z,94.30
2019-05-02T00:34:13.916Z,94.40
2019-05-02T00:36:42.686Z,94.70
2019-05-02T00:39:13.872Z,94.60
2019-05-02T00:41:40.448Z,94.50
2019-05-02T00:44:11.074Z,94.30
2019-05-02T00:46:36.185Z,94.30
2019-05-02T00:49:03.689Z,94.70
2019-05-02T00:51:31.766Z,94.60
2019-05-02T00:53:59.811Z,94.50
2019-05-02T00:56:28.598Z,95.80
2019-05-02T00:58:56.643Z,95.80
2019-05-02T01:01:29.702Z,96.30
2019-05-02T01:03:54.306Z,96.00
2019-05-02T01:06:22.426Z,95.90
2019-05-02T01:08:51.202Z,95.20
2019-05-02T01:11:19.278Z,95.20
2019-05-02T01:13:50.359Z,94.90
2019-05-02T01:16:19.201Z,94.80
2019-05-02T01:18:44.203Z,94.30
2019-05-02T01:21:13.091Z,94.40
2019-05-02T01:23:41.139Z,94.40
2019-05-02T01:26:09.962Z,94.80
2019-05-02T01:28:43.815Z,94.80
2019-05-02T01:31:13.126Z,94.90
2019-05-02T01:33:41.697Z,94.80
2019-05-02T01:36:11.067Z,95.20
2019-05-02T01:38:40.529Z,95.20
2019-05-02T01:41:09.426Z,95.30
2019-05-02T01:43:37.514Z,95.30
2019-05-02T01:46:05.575Z,95.20
2019-05-02T01:48:33.616Z,95.80
2019-05-02T01:51:04.669Z,96.50
2019-05-02T01:53:34.414Z,96.50
2019-05-02T01:55:59.363Z,96.80
2019-05-02T01:58:26.696Z,96.80
2019-05-02T02:00:54.708Z,96.80
2019-05-02T02:03:22.782Z,96.90
2019-05-02T02:05:50.831Z,97.00
2019-05-02T02:08:19.638Z,96.60
2019-05-02T02:10:50.701Z,96.60
2019-05-02T02:13:15.787Z,96.40
2019-05-02T02:15:43.867Z,96.30
2019-05-02T02:18:11.902Z,96.70
2019-05-02T02:20:45.128Z,96.20
2019-05-02T02:23:20.555Z,96.10
2019-05-02T02:25:52.089Z,96.40
2019-05-02T02:28:20.996Z,96.00
2019-05-02T02:30:49.026Z,95.90
2019-05-02T02:33:17.166Z,96.00
2019-05-02T02:35:50.383Z,95.70
2019-05-02T02:38:13.270Z,95.70
2019-05-02T02:40:42.063Z,95.70
2019-05-02T02:43:32.235Z,95.70
2019-05-02T02:45:59.744Z,96.10
2019-05-02T02:48:26.899Z,95.60
2019-05-02T02:50:54.914Z,95.30
2019-05-02T02:53:28.759Z,95.10
2019-05-02T02:56:03.397Z,94.80
2019-05-02T02:58:25.798Z,95.20
2019-05-02T03:00:54.583Z,95.70
2019-05-02T03:03:27.786Z,95.70
2019-05-02T03:05:51.444Z,95.70
2019-05-02T03:08:19.515Z,95.40
2019-05-02T03:10:47.551Z,95.10
2019-05-02T03:13:22.067Z,94.80
2019-05-02T03:15:53.082Z,94.90
2019-05-02T03:18:21.219Z,95.00
2019-05-02T03:20:49.300Z,95.00
2019-05-02T03:23:21.662Z,94.70
2019-05-02T03:25:50.780Z,94.90
2019-05-02T03:28:18.505Z,94.90
2019-05-02T03:30:43.002Z,94.20
2019-05-02T03:33:12.344Z,94.40
2019-05-02T03:35:44.188Z,94.40
2019-05-02T03:38:07.197Z,94.80
2019-05-02T03:40:38.976Z,95.30
2019-05-02T03:43:04.790Z,95.30
2019-05-02T03:45:40.395Z,95.30
2019-05-02T03:48:00.871Z,95.30
2019-05-02T03:50:32.565Z,94.70
2019-05-02T03:52:56.945Z,94.40
2019-05-02T03:55:30.669Z,94.40
2019-05-02T03:57:53.110Z,94.70
2019-05-02T04:00:24.152Z,94.70
2019-05-02T04:02:58.964Z,95.30
2019-05-02T04:05:17.270Z,95.30
2019-05-02T04:07:45.401Z,95.30
2019-05-02T04:10:19.302Z,95.40
2019-05-02T04:12:41.504Z,95.20
2019-05-02T04:15:11.139Z,95.70
2019-05-02T04:17:39.183Z,95.70
2019-05-02T04:20:10.187Z,96.00
2019-05-02T04:22:43.012Z,96.10
2019-05-02T04:25:06.422Z,96.10
2019-05-02T04:27:33.953Z,95.80
2019-05-02T04:30:09.748Z,95.70
2019-05-02T04:32:28.863Z,96.00
2019-05-02T04:34:58.106Z,95.40
2019-05-02T04:37:26.533Z,95.50
2019-05-02T04:39:58.905Z,96.20
2019-05-02T04:42:23.649Z,95.90
2019-05-02T04:45:12.200Z,95.60
2019-05-02T04:47:21.821Z,95.70
2019-05-02T04:49:49.092Z,95.70
2019-05-02T04:52:18.243Z,95.40
2019-05-02T04:54:44.571Z,95.10
2019-05-02T04:57:12.658Z,95.10
2019-05-02T04:59:40.716Z,94.80
2019-05-02T05:02:09.313Z,94.40
2019-05-02T05:04:42.363Z,94.00
2019-05-02T05:07:09.066Z,93.50
2019-05-02T05:09:34.606Z,93.50
2019-05-02T05:12:02.837Z,92.50
2019-05-02T05:14:38.188Z,89.60
2019-05-02T05:16:58.745Z,85.40
2019-05-02T05:19:30.979Z,86.80
2019-05-02T05:21:58.771Z,79.40
2019-05-02T05:24:27.955Z,68.30
2019-05-02T05:26:55.612Z,63.10
2019-05-02T05:29:23.757Z,59.80
2019-05-02T05:31:55.023Z,58.50
2019-05-02T05:34:22.762Z,55.00
2019-05-02T05:36:48.610Z,54.80
2019-05-02T05:39:17.704Z,57.20
2019-05-02T05:41:50.877Z,56.50
2019-05-02T05:44:14.263Z,55.40
2019-05-02T05:46:43.083Z,55.50
2019-05-02T05:49:18.437Z,55.40
2019-05-02T05:51:39.941Z,55.40
2019-05-02T05:54:07.990Z,55.30
2019-05-02T05:56:39.661Z,55.30
2019-05-02T05:59:04.139Z,54.40
2019-05-02T06:01:34.839Z,54.20
2019-05-02T06:04:00.996Z,53.50
2019-05-02T06:06:29.882Z,53.90
2019-05-02T06:08:57.919Z,53.90
2019-05-02T06:11:25.971Z,53.80
2019-05-02T06:13:54.098Z,54.80
2019-05-02T06:16:22.164Z,53.40
2019-05-02T06:18:50.217Z,52.00
2019-05-02T06:21:19.020Z,53.70
2019-05-02T06:23:47.810Z,52.40
2019-05-02T06:26:15.950Z,52.30
2019-05-02T06:28:44.662Z,53.40
2019-05-02T06:31:12.702Z,53.30
2019-05-02T06:33:40.817Z,52.00
2019-05-02T06:36:08.876Z,52.70
2019-05-02T06:38:36.915Z,52.50
2019-05-02T06:41:04.959Z,51.50
2019-05-02T06:43:32.987Z,52.80
2019-05-02T06:46:01.094Z,54.10
2019-05-02T06:48:29.130Z,52.20
2019-05-02T06:50:57.183Z,52.80
2019-05-02T06:53:25.978Z,52.30
2019-05-02T06:55:53.999Z,51.60
2019-05-02T06:58:22.123Z,52.90
2019-05-02T07:00:58.187Z,51.20
2019-05-02T07:03:18.966Z,51.30
2019-05-02T07:05:49.206Z,50.20
2019-05-02T07:08:15.983Z,50.20
2019-05-02T07:10:45.103Z,48.80
2019-05-02T07:13:14.895Z,50.10
2019-05-02T07:15:41.911Z,49.50
2019-05-02T07:18:12.496Z,49.70
2019-05-02T07:20:42.463Z,49.70
2019-05-02T07:23:10.696Z,48.10
2019-05-02T07:25:39.152Z,47.40
2019-05-02T07:28:09.301Z,44.40
2019-05-02T07:30:35.058Z,45.70
2019-05-02T07:33:02.314Z,44.00
2019-05-02T07:35:29.239Z,46.30
2019-05-02T07:37:58.115Z,45.30
2019-05-02T07:40:26.175Z,45.30
2019-05-02T07:42:54.254Z,44.10
2019-05-02T07:45:22.332Z,42.30
2019-05-02T07:47:50.379Z,42.50
2019-05-02T07:50:19.290Z,41.20
2019-05-02T07:52:47.359Z,41.10
2019-05-02T07:55:15.406Z,41.60
2019-05-02T07:57:44.284Z,40.10
2019-05-02T08:00:13.079Z,42.40
2019-05-02T08:02:42.012Z,42.70
2019-05-02T08:05:10.048Z,42.30
2019-05-02T08:07:38.944Z,40.50
2019-05-02T08:10:07.848Z,38.00
2019-05-02T08:12:36.110Z,37.90
2019-05-02T08:15:07.335Z,39.10
2019-05-02T08:17:33.818Z,40.60
2019-05-02T08:20:04.769Z,40.60
2019-05-02T08:22:30.095Z,39.80
2019-05-02T08:24:59.647Z,39.80
2019-05-02T08:27:37.606Z,39.70
2019-05-02T08:30:05.883Z,39.10
2019-05-02T08:32:33.703Z,38.90
2019-05-02T08:35:01.750Z,38.80
2019-05-02T08:37:35.118Z,39.20
2019-05-02T08:39:58.692Z,39.20
2019-05-02T08:42:32.192Z,40.20
2019-05-02T08:44:56.306Z,40.40
2019-05-02T08:47:28.019Z,39.30
2019-05-02T08:49:54.918Z,39.50
2019-05-02T08:52:19.896Z,37.90
2019-05-02T08:54:47.950Z,37.60
2019-05-02T08:57:16.859Z,35.00
2019-05-02T08:59:44.914Z,34.90
2019-05-02T09:02:13.710Z,36.20
2019-05-02T09:04:42.513Z,33.90
2019-05-02T09:07:11.406Z,33.00
2019-05-02T09:09:40.174Z,35.30
2019-05-02T09:12:12.468Z,35.60
2019-05-02T09:14:37.751Z,33.80
2019-05-02T09:17:11.938Z,33.90
2019-05-02T09:19:34.959Z,34.10
2019-05-02T09:22:02.702Z,34.10
2019-05-02T09:24:32.537Z,32.40
2019-05-02T09:26:59.552Z,32.40
2019-05-02T09:29:28.422Z,30.70
2019-05-02T09:31:56.498Z,30.70
2019-05-02T09:34:26.700Z,30.60
2019-05-02T09:36:53.459Z,34.00
2019-05-02T09:39:22.701Z,33.90
2019-05-02T09:41:49.594Z,31.20
2019-05-02T09:44:18.829Z,30.50
2019-05-02T09:46:47.403Z,31.40
2019-05-02T09:49:16.447Z,30.40
2019-05-02T09:51:45.341Z,30.80
2019-05-02T09:54:11.949Z,30.20
2019-05-02T09:56:39.034Z,32.30
2019-05-02T09:59:25.858Z,31.10
2019-05-02T10:01:36.604Z,31.10
2019-05-02T10:04:04.788Z,33.30
2019-05-02T10:06:34.105Z,32.30
2019-05-02T10:09:02.764Z,31.80
2019-05-02T10:11:29.834Z,34.00
2019-05-02T10:13:58.623Z,31.50
2019-05-02T10:16:27.566Z,32.00
2019-05-02T10:19:00.344Z,33.50
2019-05-02T10:21:24.298Z,33.50
2019-05-02T10:23:59.013Z,31.00
2019-05-02T10:26:24.407Z,30.50
2019-05-02T10:28:50.547Z,29.30
2019-05-02T10:31:16.719Z,32.00
2019-05-02T10:33:45.538Z,32.50
2019-05-02T10:36:19.812Z,32.50
2019-05-02T10:38:42.704Z,30.50
2019-05-02T10:41:11.985Z,32.90
2019-05-02T10:43:39.234Z,34.30
2019-05-02T10:49:07.074Z,34.70
2019-05-02T10:51:35.127Z,32.60
2019-05-02T10:54:03.158Z,29.30
2019-05-02T10:56:32.482Z,30.40
2019-05-02T10:59:02.148Z,30.40
2019-05-02T11:01:28.139Z,29.00
2019-05-02T11:03:57.095Z,29.20
2019-05-02T11:06:25.566Z,31.90
2019-05-02T11:08:53.608Z,31.40
2019-05-02T11:11:21.969Z,29.70
2019-05-02T11:14:05.793Z,28.60
2019-05-02T11:16:34.191Z,29.00
2019-05-02T11:19:04.019Z,29.20
2019-05-02T11:21:32.335Z,28.80
2019-05-02T11:24:02.160Z,28.00
2019-05-02T11:26:28.257Z,30.40
2019-05-02T11:28:56.285Z,29.40
2019-05-02T11:31:24.498Z,31.10
2019-05-02T11:33:52.863Z,29.10
2019-05-02T11:36:22.314Z,30.20
2019-05-02T11:38:56.169Z,29.50
2019-05-02T11:41:16.767Z,28.80
2019-05-02T11:43:45.672Z,32.20
2019-05-02T11:46:14.586Z,30.80
2019-05-02T11:48:54.701Z,30.70
2019-05-02T11:51:14.810Z,30.00
2019-05-02T11:53:39.478Z,30.00
2019-05-02T11:56:09.459Z,30.30
2019-05-02T11:58:42.347Z,28.30
2019-05-02T12:01:05.383Z,27.70
2019-05-02T12:03:36.918Z,29.90
2019-05-02T12:06:01.948Z,28.60
2019-05-02T12:08:31.828Z,28.50
2019-05-02T12:11:00.970Z,28.50
2019-05-02T12:13:26.934Z,29.30
2019-05-02T12:15:55.112Z,29.30
2019-05-02T12:18:23.986Z,31.50
2019-05-02T12:20:52.230Z,31.40
2019-05-02T12:23:22.450Z,30.10
2019-05-02T12:25:48.267Z,31.80
2019-05-02T12:28:16.572Z,28.70
2019-05-02T12:30:45.374Z,27.60
2019-05-02T12:33:13.430Z,27.70
2019-05-02T12:35:43.205Z,30.70
2019-05-02T12:38:12.182Z,30.50
2019-05-02T12:40:39.074Z,33.20
2019-05-02T12:43:07.127Z,33.20
2019-05-02T12:45:35.947Z,36.30
2019-05-02T12:48:04.013Z,36.30
2019-05-02T12:50:32.231Z,36.50
2019-05-02T12:53:00.191Z,37.70
2019-05-02T12:55:28.227Z,36.40
2019-05-02T12:57:56.265Z,36.50
2019-05-02T13:00:25.283Z,38.90
2019-05-02T13:02:54.136Z,38.90
2019-05-02T13:05:22.349Z,37.30
2019-05-02T13:07:55.311Z,36.10
2019-05-02T13:10:21.882Z,35.90
2019-05-02T13:12:47.859Z,37.30
2019-05-02T13:15:15.948Z,34.10
2019-05-02T13:17:48.884Z,34.20
2019-05-02T13:20:12.717Z,33.70
2019-05-02T13:22:47.285Z,34.80
2019-05-02T13:25:15.344Z,34.80
2019-05-02T13:27:47.818Z,35.40
2019-05-02T13:30:12.486Z,36.80
2019-05-02T13:32:42.529Z,34.50
2019-05-02T13:35:24.267Z,37.50
2019-05-02T13:37:53.779Z,36.00
2019-05-02T13:40:32.215Z,36.00
2019-05-02T13:43:01.755Z,34.70
2019-05-02T13:45:47.551Z,35.00
2019-05-02T13:48:15.602Z,34.90
2019-05-02T13:50:43.729Z,33.20
2019-05-02T13:53:12.143Z,34.00
2019-05-02T13:55:44.199Z,33.60
2019-05-02T13:58:12.357Z,33.60
2019-05-02T14:00:42.353Z,35.30
2019-05-02T14:03:08.483Z,33.80
2019-05-02T14:05:36.527Z,34.10
2019-05-02T14:08:12.258Z,34.10
2019-05-02T14:10:39.379Z,33.40
2019-05-02T14:13:06.523Z,34.40
2019-05-02T14:15:34.571Z,32.30
2019-05-02T14:18:02.699Z,30.60
2019-05-02T14:20:32.881Z,32.50
2019-05-02T14:22:58.702Z,32.20
2019-05-02T14:25:26.852Z,31.90
2019-05-02T14:27:55.727Z,32.60
2019-05-02T14:30:35.730Z,34.10
2019-05-02T14:32:52.348Z,34.10
2019-05-02T14:35:26.444Z,34.10
2019-05-02T14:38:08.340Z,34.20
2019-05-02T14:40:37.291Z,32.90
2019-05-02T14:43:07.113Z,33.20
2019-05-02T14:45:34.070Z,33.30
2019-05-02T14:48:17.920Z,32.90
2019-05-02T14:50:32.002Z,34.50
2019-05-02T14:52:58.422Z,34.40
2019-05-02T14:55:29.170Z,34.40
2019-05-02T14:57:57.125Z,34.70
2019-05-02T15:00:22.542Z,33.30
2019-05-02T15:02:51.886Z,33.90
2019-05-02T15:05:19.446Z,33.70
2019-05-02T15:07:47.499Z,33.30
2019-05-02T15:10:15.570Z,33.40
2019-05-02T15:12:43.639Z,34.70
2019-05-02T15:15:12.240Z,33.30
2019-05-02T15:17:41.872Z,33.30
2019-05-02T15:20:07.959Z,34.20
2019-05-02T15:22:37.603Z,34.60
2019-05-02T15:25:07.907Z,34.70
2019-05-02T15:27:41.862Z,34.50
2019-05-02T15:30:06.910Z,34.60
2019-05-02T15:32:37.290Z,34.70
2019-05-02T15:35:07.931Z,36.10
2019-05-02T15:37:36.242Z,36.20
2019-05-02T15:42:33.271Z,37.40
2019-05-02T15:45:05.613Z,36.80
2019-05-02T15:47:31.950Z,36.80
2019-05-02T15:49:58.931Z,40.10
2019-05-02T15:52:32.707Z,40.50
2019-05-02T15:55:03.543Z,40.80
2019-05-02T15:57:28.474Z,40.80
2019-05-02T15:59:56.508Z,41.80
2019-05-02T16:02:26.753Z,41.10
2019-05-02T16:04:57.025Z,39.60
2019-05-02T16:07:22.803Z,41.00
2019-05-02T16:09:55.871Z,42.10
2019-05-02T16:12:22.126Z,41.30
2019-05-02T16:14:48.472Z,41.30
2019-05-02T16:17:17.703Z,40.80
2019-05-02T16:19:45.311Z,40.70
2019-05-02T16:22:13.774Z,40.30
2019-05-02T16:24:43.883Z,39.30
2019-05-02T16:27:11.674Z,39.30
2019-05-02T16:29:39.526Z,39.80
2019-05-02T16:32:07.572Z,39.80
2019-05-02T16:34:35.598Z,39.20
2019-05-02T16:37:13.580Z,40.20
2019-05-02T16:39:36.631Z,40.10
2019-05-02T16:42:05.418Z,41.40
2019-05-02T16:44:33.442Z,41.40
2019-05-02T16:47:03.005Z,41.50
2019-05-02T16:49:32.169Z,41.50
2019-05-02T16:52:05.024Z,41.60
2019-05-02T16:54:27.916Z,41.50
2019-05-02T16:56:58.514Z,44.70
2019-05-02T16:59:24.058Z,41.40
2019-05-02T17:01:54.500Z,48.70
2019-05-02T17:04:20.190Z,56.60
2019-05-02T17:06:48.205Z,61.40
2019-05-02T17:09:17.187Z,68.00
2019-05-02T17:11:45.215Z,75.60
2019-05-02T17:14:14.020Z,76.80
2019-05-02T17:16:42.173Z,76.80
2019-05-02T17:19:12.274Z,79.10
2019-05-02T17:21:53.166Z,79.10
2019-05-02T17:24:07.011Z,73.40
2019-05-02T17:26:35.043Z,72.70
2019-05-02T17:29:03.082Z,73.60
2019-05-02T17:31:32.245Z,74.80
2019-05-02T17:34:00.015Z,75.40
2019-05-02T17:36:28.989Z,75.40
2019-05-02T17:38:59.391Z,76.40
2019-05-02T17:41:24.294Z,76.50
2019-05-02T17:43:52.419Z,76.70
2019-05-02T17:46:23.810Z,78.40
2019-05-02T17:48:52.759Z,75.90
2019-05-02T17:51:16.589Z,77.40
2019-05-02T17:53:49.625Z,77.80
2019-05-02T17:56:20.447Z,77.80
2019-05-02T17:58:47.367Z,78.60
2019-05-02T18:01:10.398Z,78.40
2019-05-02T18:03:39.213Z,82.10
2019-05-02T18:06:11.787Z,82.10
2019-05-02T18:08:35.359Z,81.40
2019-05-02T18:11:04.138Z,83.60
2019-05-02T18:13:33.847Z,83.40
2019-05-02T18:16:02.667Z,86.10
2019-05-02T18:18:29.131Z,86.00
2019-05-02T18:20:57.216Z,85.90
2019-05-02T18:23:27.591Z,83.70
2019-05-02T18:25:57.534Z,84.70
2019-05-02T18:28:25.911Z,84.50
2019-05-02T18:30:52.321Z,86.20
2019-05-02T18:33:18.378Z,86.20
2019-05-02T18:35:47.048Z,85.90
2019-05-02T18:38:16.000Z,89.00
2019-05-02T18:40:44.166Z,88.60
2019-05-02T18:43:12.194Z,88.60
2019-05-02T18:45:42.456Z,88.80
2019-05-02T18:48:08.362Z,89.20
2019-05-02T18:50:42.541Z,90.10
2019-05-02T18:53:05.306Z,90.10
2019-05-02T18:55:33.400Z,90.60
2019-05-02T18:58:05.260Z,91.20
2019-05-02T19:00:37.632Z,91.40
2019-05-02T19:02:59.161Z,91.40
2019-05-02T19:05:27.253Z,91.50
2019-05-02T19:07:56.474Z,91.10
2019-05-02T19:10:24.907Z,90.90
2019-05-02T19:12:56.148Z,90.90
2019-05-02T19:15:21.625Z,90.90
2019-05-02T19:17:49.026Z,90.80
2019-05-02T19:20:32.751Z,90.70
2019-05-02T19:23:02.867Z,91.30
2019-05-02T19:25:29.654Z,91.10
2019-05-02T19:27:59.307Z,91.20
2019-05-02T19:30:27.599Z,91.20
2019-05-02T19:32:57.789Z,91.50
2019-05-02T19:35:24.469Z,90.70
2019-05-02T19:37:55.048Z,90.70
2019-05-02T19:40:26.961Z,90.90
2019-05-02T19:42:49.578Z,91.90
2019-05-02T19:45:17.635Z,91.90
2019-05-02T19:47:48.967Z,92.20
2019-05-02T19:50:40.282Z,92.30
2019-05-02T19:53:04.287Z,92.20
2019-05-02T19:55:29.647Z,92.70
2019-05-02T19:58:02.430Z,92.50
2019-05-02T20:00:25.848Z,92.80
2019-05-02T20:02:54.623Z,93.10
2019-05-02T20:05:25.512Z,93.10
2019-05-02T20:07:52.024Z,92.80
2019-05-02T20:10:19.569Z,92.80
2019-05-02T20:12:50.330Z,92.70
2019-05-02T20:15:17.012Z,92.70
2019-05-02T20:17:44.450Z,92.60
2019-05-02T20:20:25.114Z,92.80
2019-05-02T20:22:53.940Z,92.60
2019-05-02T20:25:22.804Z,92.50
2019-05-02T20:27:52.555Z,92.20
2019-05-02T20:30:19.595Z,91.80
2019-05-02T20:32:47.646Z,91.80
2019-05-02T20:35:15.681Z,91.20
2019-05-02T20:37:43.791Z,91.10
2019-05-02T20:40:23.752Z,90.20
2019-05-02T20:42:52.829Z,90.10
2019-05-02T20:45:22.650Z,90.10
2019-05-02T20:47:48.656Z,90.80
2019-05-02T20:50:17.466Z,90.40
2019-05-02T20:52:45.508Z,90.40
2019-05-02T20:55:14.303Z,90.30
2019-05-02T20:57:43.120Z,90.60
2019-05-02T21:00:26.841Z,90.60
2019-05-02T21:02:54.891Z,91.20
2019-05-02T21:05:24.655Z,92.00
2019-05-02T21:08:10.234Z,92.60
2019-05-02T21:10:41.719Z,92.50
2019-05-02T21:13:08.813Z,92.70
2019-05-02T21:15:36.838Z,93.00
2019-05-02T21:18:05.651Z,93.50
2019-05-02T21:20:33.692Z,93.50
2019-05-02T21:23:02.035Z,94.00
2019-05-02T21:25:29.869Z,94.30
2019-05-02T21:27:57.915Z,94.70
2019-05-02T21:30:26.710Z,95.20
2019-05-02T21:32:55.515Z,95.00
2019-05-02T21:35:23.588Z,95.00
2019-05-02T21:37:52.520Z,95.00
2019-05-02T21:40:22.330Z,95.00
2019-05-02T21:42:48.614Z,95.60
2019-05-02T21:45:16.689Z,95.40
2019-05-02T21:47:45.475Z,95.50
2019-05-02T21:50:19.148Z,95.50
2019-05-02T21:55:58.654Z,95.40
2019-05-02T21:58:26.817Z,95.90
2019-05-02T22:00:55.428Z,96.40
2019-05-02T22:03:23.454Z,96.00
2019-05-02T22:05:51.500Z,95.80
2019-05-02T22:08:21.574Z,95.60
2019-05-02T22:10:47.667Z,95.10
2019-05-02T22:13:15.720Z,95.30
2019-05-02T22:15:44.518Z,95.20
2019-05-02T22:18:13.322Z,95.40
2019-05-02T22:20:42.802Z,95.40
2019-05-02T22:23:09.454Z,95.20
2019-05-02T22:25:37.545Z,95.20
2019-05-02T22:28:05.577Z,95.00
2019-05-02T22:30:34.375Z,95.40
2019-05-02T22:33:02.795Z,95.40
2019-05-02T22:35:30.495Z,96.10
2019-05-02T22:38:03.187Z,96.20
2019-05-02T22:40:32.413Z,96.60
2019-05-02T22:43:01.938Z,96.60
2019-05-02T22:45:28.155Z,96.80
2019-05-02T22:47:56.190Z,97.00
2019-05-02T22:50:25.098Z,97.40
2019-05-02T22:52:53.143Z,97.40
2019-05-02T22:55:22.579Z,97.30
2019-05-02T22:57:51.727Z,97.20
2019-05-02T23:00:18.064Z,97.30
2019-05-02T23:02:46.162Z,97.60
2019-05-02T23:05:14.194Z,97.60
2019-05-02T23:07:42.243Z,98.00
2019-05-02T23:10:10.376Z,98.00
2019-05-02T23:12:38.427Z,98.60
2019-05-02T23:15:08.046Z,99.90
2019-05-02T23:17:36.112Z,99.90
2019-05-02T23:20:05.747Z,99.90
2019-05-02T23:22:33.813Z,99.90
2019-05-02T23:25:02.873Z,99.90
2019-05-02T23:27:32.261Z,99.90
2019-05-02T23:30:00.371Z,99.90
2019-05-02T23:32:28.402Z,99.90
2019-05-02T23:34:56.511Z,99.90
2019-05-02T23:37:25.390Z,99.90
2019-05-02T23:39:53.430Z,99.90
2019-05-02T23:42:21.867Z,99.90
2019-05-02T23:44:49.585Z,99.90
2019-05-02T23:47:18.390Z,99.90
2019-05-02T23:49:46.462Z,99.90
2019-05-02T23:52:14.498Z,99.90
2019-05-02T23:54:50.092Z,99.90
2019-05-02T23:57:12.133Z,99.90
2019-05-02T23:59:38.659Z,99.90
